Time;durP1;ratioP1;P1;durP2;ratioP2;P2;SDS_P1;SDS_P2;PMS_P1;PMS_P2;Temp;Humidity;BMP_temperature;BMP_pressure;BME280_temperature;BME280_humidity;BME280_pressure;Samples;Min_cycle;Max_cycle;Signal;HPM_P1;HPM_P2
2022/09/18 00:00:29;;;;;;;14.43;2.28;;;11.30;66.20;;;;;;4119225;28;20061;-85
2022/09/18 00:02:30;;;;;;;14.95;2.10;;;11.30;66.10;;;;;;4099862;28;20031;-86
2022/09/18 00:04:31;;;;;;;19.05;2.50;;;11.30;66.00;;;;;;4120044;28;20034;-85
2022/09/18 00:06:37;;;;;;;20.65;2.42;;;11.40;66.10;;;;;;4103201;28;20400;-86
2022/09/18 00:08:39;;;;;;;17.27;2.67;;;11.40;66.10;;;;;;4111975;28;20038;-85
2022/09/18 00:10:43;;;;;;;15.63;2.30;;;11.40;66.00;;;;;;4104567;28;20181;-84
2022/09/18 00:12:44;;;;;;;15.32;1.90;;;11.50;66.00;;;;;;4107411;28;20030;-85
2022/09/18 00:14:44;;;;;;;16.60;2.17;;;11.50;66.00;;;;;;4107597;28;20034;-84
2022/09/18 00:16:45;;;;;;;14.90;2.20;;;11.50;65.90;;;;;;4127964;28;20113;-85
2022/09/18 00:18:47;;;;;;;14.75;2.30;;;11.50;66.00;;;;;;4102467;28;20525;-86
2022/09/18 00:20:48;;;;;;;15.77;1.90;;;11.40;65.80;;;;;;4105137;28;20055;-86
2022/09/18 00:22:48;;;;;;;15.38;2.10;;;11.40;65.80;;;;;;4109193;28;20034;-86
2022/09/18 00:24:49;;;;;;;17.20;2.22;;;11.50;65.90;;;;;;4107099;28;20105;-87
2022/09/18 00:26:49;;;;;;;15.32;2.10;;;11.40;65.80;;;;;;4101496;28;20035;-84
2022/09/18 00:28:51;;;;;;;17.77;2.05;;;11.40;65.70;;;;;;4137769;28;20613;-86
2022/09/18 00:30:52;;;;;;;17.80;2.17;;;11.40;65.70;;;;;;4107770;28;20105;-86
2022/09/18 00:32:53;;;;;;;16.45;2.10;;;11.40;65.70;;;;;;4108820;28;20039;-86
2022/09/18 00:34:53;;;;;;;13.65;2.72;;;11.40;65.60;;;;;;4108134;28;20101;-84
2022/09/18 00:36:54;;;;;;;13.05;2.25;;;11.40;65.60;;;;;;4106190;28;20034;-85
2022/09/18 00:38:58;;;;;;;18.40;2.20;;;11.40;65.60;;;;;;4105003;28;20030;-86
2022/09/18 00:40:59;;;;;;;;;;;11.50;65.70;;;;;;4106342;28;20019;-85
2022/09/18 00:43:36;;;;;;;15.32;1.85;;;11.50;65.70;;;;;;4105133;28;19918;-86
2022/09/18 00:45:37;;;;;;;20.40;2.75;;;11.50;65.70;;;;;;4072263;29;20032;-84
2022/09/18 00:47:47;;;;;;;13.38;1.75;;;11.40;65.60;;;;;;4039402;29;20047;-85
2022/09/18 00:50:03;;;;;;;16.85;2.05;;;11.40;65.70;;;;;;4069909;29;20059;-84
2022/09/18 00:52:05;;;;;;;14.13;1.85;;;11.40;65.70;;;;;;4069195;29;20038;-86
2022/09/18 00:54:14;;;;;;;13.52;1.40;;;11.40;65.60;;;;;;4078093;29;20514;-85
2022/09/18 00:56:16;;;;;;;13.07;1.88;;;11.40;65.90;;;;;;4053609;29;20045;-85
2022/09/18 00:58:17;;;;;;;12.75;2.25;;;11.30;66.30;;;;;;4056664;29;22628;-83
2022/09/18 01:00:17;;;;;;;18.55;1.85;;;11.30;66.40;;;;;;4062775;29;20036;-84
2022/09/18 01:02:18;;;;;;;15.48;1.95;;;11.30;66.70;;;;;;4040881;29;20036;-84
2022/09/18 01:04:19;;;;;;;16.85;1.73;;;11.30;66.90;;;;;;4076932;29;20051;-85
2022/09/18 01:06:37;;;;;;;13.38;1.80;;;11.30;67.10;;;;;;4075129;29;20046;-83
2022/09/18 01:08:46;;;;;;;8.32;1.23;;;11.20;67.20;;;;;;4061780;29;20079;-83
2022/09/18 01:11:24;;;;;;;20.58;2.53;;;11.20;67.20;;;;;;4064464;29;20716;-83
2022/09/18 01:13:32;;;;;;;15.52;2.20;;;11.20;67.20;;;;;;4075053;29;20036;-84
2022/09/18 01:15:57;;;;;;;12.95;1.70;;;11.20;67.20;;;;;;4071367;29;20032;-84
2022/09/18 01:18:25;;;;;;;16.23;2.33;;;11.10;67.40;;;;;;4056371;29;20043;-82
2022/09/18 01:20:54;;;;;;;6.55;1.50;;;11.10;67.50;;;;;;4100622;28;20049;-84
2022/09/18 01:23:25;;;;;;;8.43;1.60;;;11.10;67.60;;;;;;4108667;28;20042;-82
2022/09/18 01:26:00;;;;;;;14.00;2.17;;;11.10;67.80;;;;;;4111134;28;20023;-85
2022/09/18 01:28:18;;;;;;;13.70;2.20;;;11.00;67.70;;;;;;4046646;29;20785;-84
2022/09/18 01:30:18;;;;;;;15.60;2.22;;;11.10;68.00;;;;;;4109655;28;20027;-84
2022/09/18 01:32:30;;;;;;;15.98;1.77;;;11.00;68.00;;;;;;4110173;28;20106;-81
2022/09/18 01:34:48;;;;;;;16.25;2.08;;;11.00;68.20;;;;;;4108039;28;20091;-83
2022/09/18 01:36:55;;;;;;;15.15;1.55;;;11.00;68.20;;;;;;4108941;28;20043;-84
2022/09/18 01:39:06;;;;;;;11.30;1.70;;;11.00;68.30;;;;;;4113460;28;20060;-84
2022/09/18 01:41:12;;;;;;;15.57;1.95;;;10.90;68.30;;;;;;4103201;28;20041;-84
2022/09/18 01:43:16;;;;;;;16.30;2.00;;;10.90;69.10;;;;;;4122077;28;20048;-84
2022/09/18 01:45:21;;;;;;;20.00;2.45;;;10.90;68.40;;;;;;4107879;28;20034;-83
2022/09/18 01:47:26;;;;;;;15.65;2.53;;;11.00;68.50;;;;;;4109207;28;20061;-83
2022/09/18 01:49:37;;;;;;;19.25;2.20;;;10.90;68.50;;;;;;4113585;28;20031;-84
2022/09/18 01:51:43;;;;;;;14.50;1.88;;;10.80;68.60;;;;;;4104877;28;20041;-83
2022/09/18 01:53:53;;;;;;;12.88;1.85;;;10.90;68.70;;;;;;4102802;28;20565;-84
2022/09/18 01:56:09;;;;;;;16.95;2.17;;;10.80;68.80;;;;;;4106539;28;20029;-84
2022/09/18 01:58:17;;;;;;;18.55;1.92;;;10.80;68.90;;;;;;4122833;28;20360;-83
2022/09/18 02:00:20;;;;;;;15.38;2.00;;;10.80;68.90;;;;;;4126035;28;20027;-84
2022/09/18 02:02:33;;;;;;;14.13;1.85;;;10.80;69.00;;;;;;4106983;28;20520;-84
2022/09/18 02:04:38;;;;;;;14.98;1.90;;;10.70;69.20;;;;;;4107988;28;20097;-84
2022/09/18 02:06:46;;;;;;;19.73;2.95;;;10.80;69.50;;;;;;4106005;28;20034;-83
2022/09/18 02:08:49;;;;;;;12.77;1.92;;;10.70;69.60;;;;;;4120694;28;20069;-83
2022/09/18 02:10:56;;;;;;;19.02;2.50;;;10.70;69.80;;;;;;4108071;28;20027;-84
2022/09/18 02:12:59;;;;;;;10.88;1.60;;;10.70;69.90;;;;;;4108094;28;20104;-83
2022/09/18 02:15:08;;;;;;;12.83;1.57;;;10.70;69.90;;;;;;4107825;28;20158;-83
2022/09/18 02:17:33;;;;;;;16.05;2.05;;;10.70;70.00;;;;;;4108211;28;20062;-84
2022/09/18 02:20:04;;;;;;;17.00;2.25;;;10.60;70.00;;;;;;4098953;28;20050;-83
2022/09/18 02:22:11;;;;;;;10.98;1.50;;;10.60;70.20;;;;;;4100690;28;20049;-85
2022/09/18 02:24:15;;;;;;;12.90;1.83;;;10.60;70.10;;;;;;4103312;28;20023;-85
2022/09/18 02:26:18;;;;;;;13.18;2.00;;;10.60;70.10;;;;;;4106792;28;20030;-85
2022/09/18 02:28:21;;;;;;;13.73;1.83;;;10.60;70.10;;;;;;4110830;28;20035;-84
2022/09/18 02:30:22;;;;;;;;;;;10.50;70.10;;;;;;4110091;28;20114;-85
2022/09/18 02:32:23;;;;;;;12.40;1.80;;;10.50;70.20;;;;;;4140259;28;20039;-84
2022/09/18 02:34:24;;;;;;;11.82;1.75;;;10.60;70.10;;;;;;4107760;28;20066;-84
2022/09/18 02:37:01;;;;;;;12.43;1.55;;;10.60;70.20;;;;;;4105558;28;20617;-85
2022/09/18 02:39:23;;;;;;;13.48;1.85;;;10.50;70.50;;;;;;4136936;28;20033;-83
2022/09/18 02:42:15;;;;;;;10.88;1.80;;;10.50;70.60;;;;;;4108580;28;20039;-85
2022/09/18 02:44:24;;;;;;;12.32;1.80;;;10.50;70.80;;;;;;4056299;29;20035;-84
2022/09/18 02:46:41;;;;;;;14.48;1.70;;;10.50;70.70;;;;;;4038189;29;20043;-85
2022/09/18 02:48:46;;;;;;;10.35;1.65;;;10.60;71.00;;;;;;4054051;29;20151;-84
2022/09/18 02:51:13;;;;;;;8.70;1.50;;;10.50;70.80;;;;;;4056651;29;20047;-84
2022/09/18 02:53:14;;;;;;;11.98;1.70;;;10.50;70.80;;;;;;4055994;29;20504;-83
2022/09/18 02:55:24;;;;;;;13.25;1.75;;;10.50;70.70;;;;;;4055185;29;20054;-84
2022/09/18 02:57:35;;;;;;;15.27;2.10;;;10.50;70.70;;;;;;4042810;29;20040;-84
2022/09/18 02:59:43;;;;;;;16.50;1.40;;;10.50;70.60;;;;;;4041978;29;20179;-82
2022/09/18 03:01:45;;;;;;;18.08;2.13;;;10.50;70.60;;;;;;4054712;29;20044;-83
2022/09/18 03:03:46;;;;;;;12.10;1.45;;;10.40;70.40;;;;;;4052630;29;20036;-84
2022/09/18 03:05:46;;;;;;;10.88;1.88;;;10.50;70.50;;;;;;4041050;29;20033;-83
2022/09/18 03:07:47;;;;;;;14.77;2.47;;;10.50;70.50;;;;;;4041847;29;20043;-82
2022/09/18 03:09:48;;;;;;;18.63;2.08;;;10.40;70.50;;;;;;4055635;29;20036;-83
2022/09/18 03:11:49;;;;;;;10.73;1.75;;;10.40;70.50;;;;;;4039719;29;20029;-82
2022/09/18 03:13:50;;;;;;;10.40;1.60;;;10.40;70.50;;;;;;4068326;29;20032;-80
2022/09/18 03:15:53;;;;;;;8.50;1.40;;;10.40;70.50;;;;;;4121053;28;20058;-81
2022/09/18 03:17:54;;;;;;;11.32;1.75;;;10.40;70.50;;;;;;4118118;28;20671;-85
2022/09/18 03:19:54;;;;;;;13.98;1.90;;;10.30;70.50;;;;;;4125374;28;20037;-84
2022/09/18 03:21:56;;;;;;;8.38;1.70;;;10.40;70.60;;;;;;4110392;28;20700;-82
2022/09/18 03:23:56;;;;;;;17.13;2.00;;;10.30;70.50;;;;;;4125137;28;20141;-83
2022/09/18 03:25:57;;;;;;;10.35;1.42;;;10.30;70.50;;;;;;4108257;28;20084;-83
2022/09/18 03:27:58;;;;;;;13.25;1.38;;;10.30;70.50;;;;;;4109385;28;20538;-82
2022/09/18 03:29:58;;;;;;;15.27;1.83;;;10.30;70.50;;;;;;4108820;28;20061;-83
2022/09/18 03:31:59;;;;;;;16.42;1.50;;;10.30;70.50;;;;;;4109729;28;20031;-83
2022/09/18 03:34:00;;;;;;;12.05;1.70;;;10.30;70.50;;;;;;4107594;28;22282;-83
2022/09/18 03:36:01;;;;;;;17.25;2.53;;;10.40;70.60;;;;;;4108679;28;20030;-83
2022/09/18 03:38:02;;;;;;;6.35;1.30;;;10.20;70.50;;;;;;4104010;28;20039;-84
2022/09/18 03:40:03;;;;;;;13.02;1.50;;;10.20;70.40;;;;;;4107487;28;20031;-83
2022/09/18 03:42:04;;;;;;;15.88;1.90;;;10.20;70.50;;;;;;4107387;28;20155;-84
2022/09/18 03:44:04;;;;;;;11.68;1.10;;;10.20;70.40;;;;;;4108670;28;20031;-83
2022/09/18 03:46:05;;;;;;;13.82;1.35;;;10.30;70.50;;;;;;4110473;28;20055;-84
2022/09/18 03:48:06;;;;;;;12.73;1.80;;;10.20;70.40;;;;;;4106634;28;20042;-84
2022/09/18 03:50:07;;;;;;;18.27;1.65;;;10.20;70.40;;;;;;4109100;28;20439;-82
2022/09/18 03:52:07;;;;;;;12.38;1.98;;;10.20;70.50;;;;;;4106414;28;20518;-84
2022/09/18 03:54:08;;;;;;;9.48;1.25;;;10.20;70.50;;;;;;4123840;28;20113;-84
2022/09/18 03:56:08;;;;;;;5.75;1.45;;;10.20;70.50;;;;;;4103666;28;20074;-84
2022/09/18 03:58:09;;;;;;;11.55;1.20;;;10.10;70.40;;;;;;4106539;28;20035;-81
2022/09/18 04:00:11;;;;;;;8.18;1.10;;;10.20;70.50;;;;;;4118901;28;20038;-83
2022/09/18 04:02:11;;;;;;;18.55;1.65;;;10.10;70.40;;;;;;4108666;28;20294;-82
2022/09/18 04:04:12;;;;;;;14.50;2.03;;;10.10;70.10;;;;;;4120862;28;20031;-84
2022/09/18 04:06:13;;;;;;;13.77;1.40;;;10.00;70.50;;;;;;4105812;28;20049;-84
2022/09/18 04:08:13;;;;;;;10.13;1.40;;;10.10;70.50;;;;;;4106236;28;20442;-83
2022/09/18 04:10:14;;;;;;;16.48;2.08;;;10.00;70.50;;;;;;4109672;28;20026;-83
2022/09/18 04:12:35;;;;;;;13.93;1.98;;;10.00;70.60;;;;;;4104047;28;20034;-85
2022/09/18 04:14:55;;;;;;;7.45;1.30;;;10.00;70.60;;;;;;4110417;28;20038;-84
2022/09/18 04:17:16;;;;;;;9.93;1.67;;;10.10;70.70;;;;;;4125242;28;20038;-81
2022/09/18 04:19:37;;;;;;;12.48;1.73;;;9.90;70.60;;;;;;4109090;28;20380;-83
2022/09/18 04:21:57;;;;;;;19.40;1.83;;;10.00;70.70;;;;;;4107990;28;20086;-83
2022/09/18 04:24:18;;;;;;;9.43;1.33;;;9.90;70.60;;;;;;4109470;28;20118;-83
2022/09/18 04:26:39;;;;;;;15.05;1.77;;;9.90;70.60;;;;;;4110128;28;20069;-84
2022/09/18 04:29:01;;;;;;;16.27;1.20;;;10.00;70.60;;;;;;4111602;28;20402;-83
2022/09/18 04:31:02;;;;;;;10.32;1.27;;;9.80;70.60;;;;;;4105594;28;20023;-83
2022/09/18 04:33:03;;;;;;;16.85;2.05;;;9.80;70.60;;;;;;4110525;28;20027;-83
2022/09/18 04:35:05;;;;;;;12.98;1.98;;;9.80;70.70;;;;;;4110410;28;20039;-84
2022/09/18 04:37:05;;;;;;;10.18;1.63;;;9.80;70.80;;;;;;4110047;28;20039;-83
2022/09/18 04:39:06;;;;;;;14.23;2.15;;;9.90;71.00;;;;;;4109321;28;20038;-83
2022/09/18 04:41:07;;;;;;;12.43;1.23;;;9.70;71.00;;;;;;4105696;28;20038;-83
2022/09/18 04:43:11;;;;;;;11.00;1.63;;;9.80;71.10;;;;;;4135930;28;20135;-84
2022/09/18 04:45:11;;;;;;;;;;;9.70;71.20;;;;;;4109660;28;20432;-84
2022/09/18 04:47:12;;;;;;;8.40;1.27;;;9.70;71.50;;;;;;4107460;28;19964;-83
2022/09/18 04:49:13;;;;;;;9.55;1.73;;;9.70;71.10;;;;;;4107157;28;20089;-83
2022/09/18 04:51:14;;;;;;;12.07;1.50;;;9.70;71.20;;;;;;4108798;28;20050;-84
2022/09/18 04:53:15;;;;;;;8.90;1.40;;;9.70;71.40;;;;;;4137498;28;20029;-83
2022/09/18 04:55:15;;;;;;;10.23;1.65;;;9.70;71.40;;;;;;4111927;28;20502;-83
2022/09/18 04:57:16;;;;;;;18.27;1.70;;;9.70;71.50;;;;;;4105598;28;20082;-84
2022/09/18 04:59:17;;;;;;;11.57;1.77;;;9.70;71.50;;;;;;4101497;28;20041;-82
2022/09/18 05:01:18;;;;;;;11.45;1.75;;;9.70;71.30;;;;;;4097897;28;20242;-84
2022/09/18 05:03:19;;;;;;;9.15;1.48;;;9.70;71.20;;;;;;4132713;28;20030;-83
2022/09/18 05:05:20;;;;;;;13.82;1.70;;;9.70;71.20;;;;;;4100749;28;20035;-83
2022/09/18 05:07:21;;;;;;;14.48;1.83;;;9.80;71.20;;;;;;4114519;28;20137;-84
2022/09/18 05:09:22;;;;;;;18.08;2.20;;;9.70;71.10;;;;;;4105218;28;20027;-85
2022/09/18 05:11:22;;;;;;;12.52;1.50;;;9.80;71.00;;;;;;4103025;28;20110;-84
2022/09/18 05:13:23;;;;;;;13.50;1.70;;;9.80;70.90;;;;;;4137658;28;20128;-84
2022/09/18 05:15:24;;;;;;;10.73;1.80;;;9.80;70.90;;;;;;4101818;28;20031;-85
2022/09/18 05:17:24;;;;;;;9.82;1.25;;;9.90;70.80;;;;;;4123598;28;20041;-85
2022/09/18 05:19:25;;;;;;;17.27;1.80;;;9.80;70.60;;;;;;4105573;28;20125;-86
2022/09/18 05:21:26;;;;;;;9.63;1.73;;;9.90;70.50;;;;;;4123613;28;20070;-85
2022/09/18 05:23:26;;;;;;;11.75;1.70;;;9.80;70.30;;;;;;4107932;28;20118;-86
2022/09/18 05:25:28;;;;;;;7.32;1.10;;;9.80;70.30;;;;;;4108084;28;20450;-86
2022/09/18 05:27:30;;;;;;;12.57;1.60;;;9.80;70.30;;;;;;4138034;28;20160;-86
2022/09/18 05:29:31;;;;;;;18.17;2.53;;;9.80;70.30;;;;;;4109755;28;20030;-86
2022/09/18 05:31:31;;;;;;;19.50;2.05;;;9.80;70.30;;;;;;4108046;28;20045;-85
2022/09/18 05:33:32;;;;;;;12.77;1.83;;;9.90;70.30;;;;;;4100718;28;20122;-85
2022/09/18 05:35:34;;;;;;;16.00;1.85;;;9.90;70.30;;;;;;4114825;28;20046;-85
2022/09/18 05:37:35;;;;;;;15.60;1.92;;;9.90;70.20;;;;;;4108265;28;20515;-86
2022/09/18 05:39:35;;;;;;;13.25;1.60;;;9.90;70.10;;;;;;4144529;28;20037;-85
2022/09/18 05:41:36;;;;;;;11.55;1.55;;;10.00;70.30;;;;;;4113165;28;20074;-85
2022/09/18 05:43:37;;;;;;;12.93;1.52;;;10.00;70.20;;;;;;4093028;28;20031;-85
2022/09/18 05:45:37;;;;;;;11.73;1.58;;;10.00;70.20;;;;;;4113664;28;20030;-85
2022/09/18 05:47:38;;;;;;;14.18;2.00;;;10.00;70.20;;;;;;4111693;28;20030;-85
2022/09/18 05:49:39;;;;;;;12.63;1.63;;;10.00;70.30;;;;;;4109322;28;20156;-84
2022/09/18 05:51:39;;;;;;;10.00;1.90;;;10.00;70.20;;;;;;4113290;28;20038;-84
2022/09/18 05:53:41;;;;;;;10.82;1.50;;;10.10;70.20;;;;;;4115214;28;20114;-84
2022/09/18 05:55:42;;;;;;;12.52;1.58;;;10.10;69.90;;;;;;4113442;28;20035;-84
2022/09/18 05:57:43;;;;;;;14.38;1.60;;;10.10;69.70;;;;;;4125735;28;20057;-84
2022/09/18 05:59:43;;;;;;;12.57;1.65;;;10.10;69.40;;;;;;4112323;28;20046;-86
2022/09/18 06:01:44;;;;;;;14.60;1.40;;;10.10;69.30;;;;;;4113731;28;20129;-86
2022/09/18 06:03:47;;;;;;;8.25;1.20;;;10.20;69.30;;;;;;4118452;28;20041;-85
2022/09/18 06:05:51;;;;;;;;;;;10.20;69.30;;;;;;4113562;28;20030;-85
2022/09/18 06:07:52;;;;;;;12.40;1.52;;;10.20;69.20;;;;;;4127250;28;19956;-86
2022/09/18 06:09:53;;;;;;;13.13;1.60;;;10.30;69.10;;;;;;4146500;28;20494;-86
2022/09/18 06:11:53;;;;;;;14.77;1.48;;;10.40;69.10;;;;;;4113851;28;20038;-85
2022/09/18 06:13:54;;;;;;;13.55;1.98;;;10.40;69.00;;;;;;4110612;28;20030;-85
2022/09/18 06:15:56;;;;;;;9.65;1.50;;;10.30;68.90;;;;;;4103562;28;20034;-84
2022/09/18 06:17:57;;;;;;;9.40;1.30;;;10.40;69.00;;;;;;4121789;28;20026;-85
2022/09/18 06:19:58;;;;;;;10.75;1.75;;;10.40;69.00;;;;;;4105598;28;20046;-86
2022/09/18 06:21:59;;;;;;;8.93;1.38;;;10.30;68.80;;;;;;4124462;28;20479;-87
2022/09/18 06:24:00;;;;;;;11.02;1.83;;;10.40;68.90;;;;;;4142587;28;20026;-87
2022/09/18 06:26:06;;;;;;;8.80;1.50;;;10.40;68.80;;;;;;4111047;28;20034;-86
2022/09/18 06:28:06;;;;;;;17.42;1.55;;;10.40;69.00;;;;;;4109345;28;20031;-86
2022/09/18 06:30:07;;;;;;;9.73;1.40;;;10.40;69.00;;;;;;4122789;28;20073;-87
2022/09/18 06:32:09;;;;;;;18.38;1.60;;;10.40;69.00;;;;;;4138484;28;20026;-86
2022/09/18 06:34:09;;;;;;;17.20;1.52;;;10.50;69.00;;;;;;4111477;28;20026;-86
2022/09/18 06:36:13;;;;;;;15.18;3.00;;;10.50;69.10;;;;;;4108969;28;20019;-86
2022/09/18 06:38:14;;;;;;;19.00;2.10;;;10.50;68.90;;;;;;4114450;28;20038;-86
2022/09/18 06:40:15;;;;;;;8.65;1.70;;;10.60;68.90;;;;;;4109276;28;20066;-87
2022/09/18 06:42:16;;;;;;;16.50;1.52;;;10.60;68.90;;;;;;4119873;28;20034;-86
2022/09/18 06:44:16;;;;;;;10.65;1.52;;;10.60;69.00;;;;;;4124041;28;20065;-86
2022/09/18 06:46:17;;;;;;;12.10;2.13;;;10.60;68.90;;;;;;4111460;28;20038;-86
2022/09/18 06:48:18;;;;;;;12.82;1.95;;;10.70;69.00;;;;;;4110095;28;20106;-86
2022/09/18 06:50:22;;;;;;;11.00;1.35;;;10.70;68.90;;;;;;4108146;28;20035;-85
2022/09/18 06:52:22;;;;;;;15.68;1.42;;;10.70;68.90;;;;;;4139719;28;20037;-85
2022/09/18 06:54:23;;;;;;;10.95;1.77;;;10.70;68.70;;;;;;4107417;28;20045;-88
2022/09/18 06:56:24;;;;;;;9.55;1.45;;;10.80;68.50;;;;;;4104935;28;20027;-84
2022/09/18 06:58:25;;;;;;;11.63;1.98;;;10.80;68.40;;;;;;4106107;28;20507;-85
2022/09/18 07:00:26;;;;;;;15.25;1.80;;;10.90;68.50;;;;;;4104754;28;20026;-85
2022/09/18 07:02:27;;;;;;;14.88;1.60;;;11.00;67.40;;;;;;4106814;28;20066;-84
2022/09/18 07:04:27;;;;;;;13.68;1.50;;;10.90;67.30;;;;;;4107949;28;22721;-84
2022/09/18 07:06:28;;;;;;;9.40;1.38;;;11.10;67.40;;;;;;4105511;28;20057;-83
2022/09/18 07:08:29;;;;;;;9.50;1.58;;;11.00;66.50;;;;;;4110017;28;20035;-85
2022/09/18 07:10:30;;;;;;;11.60;1.40;;;11.10;66.50;;;;;;4138675;28;20084;-84
2022/09/18 07:12:31;;;;;;;15.18;2.10;;;11.10;66.10;;;;;;4108262;28;20050;-84
2022/09/18 07:14:52;;;;;;;11.43;1.30;;;11.10;66.10;;;;;;4116798;28;20035;-84
2022/09/18 07:17:13;;;;;;;9.60;1.45;;;11.10;65.60;;;;;;4116134;28;20035;-84
2022/09/18 07:19:33;;;;;;;9.85;1.05;;;11.20;65.50;;;;;;4115662;28;20039;-85
2022/09/18 07:21:54;;;;;;;11.38;1.60;;;11.20;65.20;;;;;;4108008;28;20039;-85
2022/09/18 07:24:15;;;;;;;8.93;1.20;;;11.30;65.30;;;;;;4105697;28;20134;-84
2022/09/18 07:26:36;;;;;;;10.85;1.15;;;11.30;65.40;;;;;;4105733;28;20081;-84
2022/09/18 07:28:36;;;;;;;9.98;1.40;;;11.40;65.30;;;;;;4109337;28;20035;-84
2022/09/18 07:30:39;;;;;;;11.02;1.65;;;11.50;65.10;;;;;;4108793;28;20114;-85
2022/09/18 07:32:39;;;;;;;9.85;1.30;;;11.50;65.20;;;;;;4108554;28;20038;-85
2022/09/18 07:34:40;;;;;;;7.07;1.23;;;11.50;65.00;;;;;;4109064;28;20027;-84
2022/09/18 07:36:41;;;;;;;11.65;1.35;;;11.60;64.80;;;;;;4105308;28;20054;-85
2022/09/18 07:38:42;;;;;;;9.20;1.35;;;11.60;64.80;;;;;;4108826;28;20641;-84
2022/09/18 07:40:44;;;;;;;9.60;1.15;;;11.70;64.40;;;;;;4125866;28;20037;-84
2022/09/18 07:42:44;;;;;;;12.90;1.48;;;11.60;63.80;;;;;;4108133;28;20433;-85
2022/09/18 07:44:45;;;;;;;7.20;1.38;;;11.60;62.90;;;;;;4107337;28;20046;-84
2022/09/18 07:46:46;;;;;;;6.20;0.75;;;11.70;63.00;;;;;;4106834;28;20426;-84
2022/09/18 07:48:46;;;;;;;8.77;1.83;;;11.70;63.00;;;;;;4114138;28;20026;-84
2022/09/18 07:50:47;;;;;;;8.27;1.23;;;11.70;62.80;;;;;;4109449;28;20407;-83
2022/09/18 07:52:53;;;;;;;12.20;1.10;;;11.80;62.60;;;;;;4111141;28;20034;-84
2022/09/18 07:54:53;;;;;;;10.07;1.25;;;11.70;62.30;;;;;;4137176;28;20034;-83
2022/09/18 07:56:54;;;;;;;7.55;1.25;;;11.80;62.50;;;;;;4109106;28;20026;-84
2022/09/18 07:58:55;;;;;;;9.27;1.40;;;11.80;61.90;;;;;;4111516;28;20066;-84
2022/09/18 08:01:00;;;;;;;10.18;1.40;;;11.80;61.70;;;;;;4137791;28;20064;-84
2022/09/18 08:03:10;;;;;;;13.63;1.52;;;11.90;61.60;;;;;;4111056;28;20031;-84
2022/09/18 08:05:11;;;;;;;6.13;1.00;;;11.90;61.30;;;;;;4122260;28;20030;-83
2022/09/18 08:07:11;;;;;;;13.20;1.45;;;11.90;61.50;;;;;;4110029;28;20026;-85
2022/09/18 08:09:12;;;;;;;10.18;1.10;;;11.90;61.50;;;;;;4110184;28;20395;-84
2022/09/18 08:11:12;;;;;;;7.55;1.02;;;12.00;61.40;;;;;;4108424;28;20089;-83
2022/09/18 08:13:13;;;;;;;11.00;1.73;;;12.00;61.20;;;;;;4109516;28;20038;-84
2022/09/18 08:15:14;;;;;;;12.45;1.40;;;12.00;61.10;;;;;;4106626;28;20050;-85
2022/09/18 08:17:15;;;;;;;13.10;1.35;;;12.00;60.60;;;;;;4105309;28;20043;-85
2022/09/18 08:19:16;;;;;;;8.63;1.08;;;12.10;60.90;;;;;;4104844;28;20041;-84
2022/09/18 08:21:17;;;;;;;5.18;1.70;;;12.10;61.00;;;;;;4118021;28;20395;-84
2022/09/18 08:23:18;;;;;;;10.30;0.95;;;12.10;60.90;;;;;;4102888;28;20042;-84
2022/09/18 08:25:19;;;;;;;6.57;1.48;;;12.20;61.10;;;;;;4107099;28;20031;-84
2022/09/18 08:27:20;;;;;;;12.68;1.48;;;12.30;61.20;;;;;;4104499;28;20039;-84
2022/09/18 08:29:21;;;;;;;11.23;1.60;;;12.20;61.30;;;;;;4105701;28;20039;-84
2022/09/18 08:31:21;;;;;;;7.63;0.93;;;12.40;61.00;;;;;;4108008;28;20601;-84
2022/09/18 08:33:23;;;;;;;7.80;1.40;;;12.40;61.00;;;;;;4106433;28;20398;-84
2022/09/18 08:35:23;;;;;;;5.93;1.13;;;12.30;61.00;;;;;;4110414;28;20042;-85
2022/09/18 08:37:24;;;;;;;6.75;1.38;;;12.50;61.00;;;;;;4102704;28;20039;-83
2022/09/18 08:39:25;;;;;;;13.68;1.67;;;12.50;60.60;;;;;;4102655;28;20442;-84
2022/09/18 08:41:49;;;;;;;10.40;1.60;;;12.50;60.60;;;;;;4106458;28;20035;-83
2022/09/18 08:43:58;;;;;;;12.65;1.45;;;12.60;60.20;;;;;;4101843;28;20035;-83
2022/09/18 08:46:06;;;;;;;9.68;1.35;;;12.60;59.80;;;;;;4101675;28;20027;-84
2022/09/18 08:48:27;;;;;;;9.50;1.42;;;12.70;60.10;;;;;;4104355;28;20125;-84
2022/09/18 08:50:31;;;;;;;12.85;1.70;;;12.70;59.90;;;;;;4104029;28;20035;-83
2022/09/18 08:52:33;;;;;;;;;;;12.70;59.70;;;;;;4107204;28;20023;-84
2022/09/18 08:54:43;;;;;;;11.50;1.70;;;12.70;59.70;;;;;;4107486;28;19914;-85
2022/09/18 08:56:45;;;;;;;10.75;1.60;;;12.70;59.90;;;;;;4139641;28;20038;-85
2022/09/18 08:58:50;;;;;;;7.72;1.33;;;12.80;60.10;;;;;;4110707;28;20051;-85
2022/09/18 09:01:00;;;;;;;17.77;1.90;;;12.80;61.00;;;;;;4141828;28;21505;-85
2022/09/18 09:03:16;;;;;;;9.45;1.63;;;12.80;60.30;;;;;;4109032;28;20034;-84
2022/09/18 09:05:20;;;;;;;10.65;1.40;;;12.90;60.60;;;;;;4106348;28;20022;-85
2022/09/18 09:07:30;;;;;;;10.73;1.35;;;12.90;60.70;;;;;;4123369;28;20026;-85
2022/09/18 09:09:59;;;;;;;15.98;1.85;;;12.90;60.80;;;;;;4110707;28;20773;-85
2022/09/18 09:12:37;;;;;;;10.27;1.65;;;12.90;60.70;;;;;;4071187;28;20031;-87
2022/09/18 09:14:51;;;;;;;15.77;1.67;;;12.90;60.80;;;;;;4106138;28;20039;-85
2022/09/18 09:17:08;;;;;;;9.85;1.73;;;12.90;61.20;;;;;;4121724;28;20106;-85
2022/09/18 09:19:26;;;;;;;12.40;1.90;;;12.90;61.60;;;;;;4111622;28;20022;-85
2022/09/18 09:21:52;;;;;;;10.20;1.52;;;12.90;61.70;;;;;;4111754;28;20545;-85
2022/09/18 09:24:28;;;;;;;10.93;1.52;;;12.80;62.50;;;;;;4109043;28;20031;-86
2022/09/18 09:26:31;;;;;;;13.07;1.23;;;12.70;62.30;;;;;;4112345;28;20038;-85
2022/09/18 09:29:19;;;;;;;9.10;1.67;;;12.70;62.50;;;;;;4140891;28;20061;-85
2022/09/18 09:31:24;;;;;;;17.80;2.05;;;12.60;62.90;;;;;;4121599;28;20093;-85
2022/09/18 09:33:27;;;;;;;16.80;1.90;;;12.60;63.30;;;;;;4108207;28;20038;-85
2022/09/18 09:36:11;;;;;;;13.65;2.13;;;12.60;63.80;;;;;;4106883;28;20609;-86
2022/09/18 09:38:42;;;;;;;22.15;2.30;;;12.60;64.80;;;;;;4061674;29;20040;-85
2022/09/18 09:40:48;;;;;;;14.27;1.80;;;12.50;64.10;;;;;;4086773;28;20129;-85
2022/09/18 09:42:59;;;;;;;13.82;1.90;;;12.50;63.80;;;;;;4091657;28;20205;-86
2022/09/18 09:45:17;;;;;;;8.38;1.70;;;12.50;63.70;;;;;;4075283;29;20030;-86
2022/09/18 09:47:24;;;;;;;7.22;1.27;;;12.40;64.40;;;;;;4095236;28;20062;-86
2022/09/18 09:49:50;;;;;;;8.25;1.20;;;12.40;63.80;;;;;;4079029;29;20257;-86
2022/09/18 09:52:14;;;;;;;6.65;0.95;;;12.40;62.90;;;;;;4072003;29;20028;-86
2022/09/18 09:54:17;;;;;;;8.80;1.65;;;12.40;61.90;;;;;;4088265;28;20069;-85
2022/09/18 09:56:37;;;;;;;9.95;1.05;;;12.30;62.70;;;;;;4088710;28;20035;-85
2022/09/18 09:59:04;;;;;;;11.38;1.52;;;12.20;63.00;;;;;;4091097;28;20381;-85
2022/09/18 10:01:42;;;;;;;11.88;1.35;;;12.10;63.10;;;;;;4090110;28;20039;-85
2022/09/18 10:04:05;;;;;;;8.45;1.70;;;12.10;63.90;;;;;;4054222;29;20434;-85
2022/09/18 10:06:30;;;;;;;11.35;1.65;;;12.00;64.00;;;;;;4065461;29;20084;-84
2022/09/18 10:08:40;;;;;;;9.40;1.10;;;11.90;64.50;;;;;;4084556;29;20027;-84
2022/09/18 10:10:49;;;;;;;12.05;1.63;;;11.80;64.70;;;;;;4071499;29;20044;-85
2022/09/18 10:12:56;;;;;;;13.23;1.60;;;11.80;65.00;;;;;;4057039;29;20052;-86
2022/09/18 10:15:11;;;;;;;14.77;1.67;;;11.70;65.30;;;;;;4038589;29;20024;-84
2022/09/18 10:17:13;;;;;;;11.90;1.52;;;11.70;65.80;;;;;;4069175;29;20034;-84
2022/09/18 10:19:17;;;;;;;8.85;1.30;;;11.70;66.00;;;;;;4058389;29;20118;-84
2022/09/18 10:21:21;;;;;;;10.20;1.50;;;11.60;66.50;;;;;;4073712;29;20036;-86
2022/09/18 10:23:34;;;;;;;9.32;1.58;;;11.70;66.70;;;;;;4076374;29;20083;-85
2022/09/18 10:25:39;;;;;;;20.65;1.63;;;11.60;67.10;;;;;;4077849;29;20039;-86
2022/09/18 10:27:40;;;;;;;10.23;2.00;;;11.50;67.40;;;;;;4071339;29;20039;-85
2022/09/18 10:29:42;;;;;;;14.80;1.80;;;11.50;67.90;;;;;;4076248;29;20261;-85
2022/09/18 10:31:58;;;;;;;11.07;1.95;;;11.50;68.30;;;;;;4076216;29;20044;-85
2022/09/18 10:33:59;;;;;;;13.40;1.70;;;11.50;69.60;;;;;;4070786;29;20059;-86
2022/09/18 10:36:10;;;;;;;6.60;1.23;;;11.60;69.60;;;;;;4053994;29;20175;-86
2022/09/18 10:38:29;;;;;;;7.88;1.40;;;11.60;70.00;;;;;;4050421;29;20062;-84
2022/09/18 10:40:37;;;;;;;17.95;1.90;;;11.60;70.80;;;;;;4133663;28;20221;-85
2022/09/18 10:42:38;;;;;;;14.75;2.10;;;11.80;71.00;;;;;;4105285;28;20038;-85
2022/09/18 10:44:40;;;;;;;14.50;2.22;;;11.80;71.40;;;;;;4109164;28;20572;-85
2022/09/18 10:47:21;;;;;;;8.23;1.00;;;11.90;71.60;;;;;;4116552;28;20034;-85
2022/09/18 10:49:26;;;;;;;11.77;1.50;;;12.00;72.00;;;;;;4106665;28;20094;-85
2022/09/18 10:51:28;;;;;;;9.50;1.80;;;12.20;71.70;;;;;;4105948;28;20042;-85
2022/09/18 10:53:32;;;;;;;14.23;1.60;;;12.20;71.80;;;;;;4104467;28;20027;-85